Logo AVAMET
Benvolgut visitant, si us plau, ingressa Recuperar contrasenya
AVAMET paisatges

Redovà

Dades diàries. Acumulats / Últims 30 dies disponibles

Data Temperatura (°C) Humitat rel. (%) Pressió rel. (hPa) Vent (km/h) Precipitació
Mínima Mitjana Màxima Amplitud
tèrmica
Mínima Mitjana Màxima Mínima Mitjana Màxima Predom. Mitjana Ràfega
màxima
Total
(mm)
Índex-n
Mínima Mitjana Màxima Mínima Mitjana Màxima n
0 a 1
P0 max
mm 5'
Dades mensuals acumulades fins l'últim dia disponible
03/2020 8,6 11,7 16,4 15,8 12,6 20,5 30,6 22,0 24 65 95 1.007 1.018 1.029   4,4 51,5 111,0
Dades anuals acumulades fins l'últim dia disponible
2020 2,6 9,5 16,4 14,1 10,3 19,8 30,6 28,0 23 70 96 1.007 1.024 1.037   2,7 56,3 177,0
Últims 30 dies disponibles
28-03-2020 8,6     12,5     17,6 9,0 48 72 89 1.017 1.019 1.021 SE 1,5 19,3 2,0 0,48 0,80
27-03-2020 9,7     11,0     12,6 2,9 62 75 85 1.012 1.014 1.017 SSE 3,6 40,2 7,8 0,54 1,40
26-03-2020 8,8     13,5     20,8 12,0 30 70 94 1.008 1.011 1.016 SSE 4,3 32,2 0,6
25-03-2020 10,2     12,5     15,3 5,1 61 75 91 1.017 1.018 1.018 SSE 2,8 24,1 1,0
24-03-2020 11,9     13,1     14,3 2,4 77 88 91 1.014 1.015 1.017 SE 4,9 49,9 46,8 0,56 3,20
23-03-2020 11,1     13,7     17,7 6,6 76 88 95 1.015 1.016 1.017 SE 5,7 51,5 11,8 0,30 2,60
22-03-2020 9,0     11,7     15,5 6,5 74 89 94 1.012 1.014 1.016 S 0,5 14,5 16,2 0,52 4,20
21-03-2020 10,9     13,6     17,7 6,8 64 82 94 1.013 1.015 1.018 S 2,5 27,4 23,4 0,54 4,70
20-03-2020 12,1     14,7     16,7 4,6 60 72 83 1.016 1.019 1.021 SSE 5,2 35,4 0,0
19-03-2020 11,5     14,9     18,4 6,9 61 73 81 1.021 1.023 1.025 ESE 5,8 38,6 0,0
18-03-2020 11,6     17,5     19,7 8,1 55 64 76 1.024 1.025 1.027 E 9,7 51,5 0,0
17-03-2020 8,7     11,2     17,4 8,7 70 83 89 1.020 1.023 1.026 OSO 0,7 14,5 1,0 0,42 0,40
16-03-2020 9,8     13,5     17,4 7,6 70 80 90 1.012 1.015 1.020 SSE 2,8 27,4 0,4
15-03-2020 12,0     15,9     19,7 7,7 60 78 89 1.016 1.019 1.022 ENE 3,5 24,1 0,0
14-03-2020 12,2     16,3     22,6 10,4 55 74 85 1.020 1.021 1.023 SE 2,5 19,3 0,0
13-03-2020 11,3     17,0     24,6 13,3 40 63 80 1.017 1.019 1.021 ESE 2,7 27,4 0,0
12-03-2020 11,6     18,6     27,3 15,7 37 63 89 1.018 1.021 1.024 SE 2,3 20,9 0,0
11-03-2020 12,1     19,4     30,6 18,5 28 60 79 1.022 1.024 1.026 S 1,9 35,4 0,0
10-03-2020 11,9     17,5     22,1 10,2 35 59 80 1.024 1.026 1.029 SSE 2,8 20,9 0,0
09-03-2020 15,7     20,6     23,8 8,1 24 36 55 1.021 1.023 1.026 SO 6,2 32,2 0,0
07-03-2020 11,7     15,0     20,6 8,9 33 37 45 1.023 1.024 1.026 OSO 5,7 37,0 0,0
06-03-2020 13,3     16,6     19,3 6,0 26 38 51 1.016 1.019 1.024 SO 9,2 45,1 0,0
05-03-2020 13,1     20,5     26,1 13,0 37 46 70 1.010 1.013 1.016 SO 7,0 38,6 0,0
04-03-2020 15,7     20,7     24,9 9,2 41 54 67 1.018 1.020 1.022 SO 5,0 25,7 0,0
03-03-2020 10,2     17,4     24,4 14,2 36 49 65 1.015 1.018 1.021 SO 6,4 41,8 0,0
02-03-2020 13,8     19,8     25,4 11,6 26 38 50 1.007 1.011 1.020 SO 11,2 49,9 0,0
01-03-2020 16,4     18,2     20,4 4,0 49 57 65 1.015 1.016 1.018 O 1,9 12,9 0,0
29-02-2020 11,6     21,3     22,9 11,3 31 40 50 1.016 1.017 1.018 SSE 1,8 8,0 0,0
28-02-2020 13,4     19,6     24,7 11,3 30 42 58 1.021 1.022 1.024 E 6,3 27,4 0,0
27-02-2020 11,0     17,3     25,9 14,9 23 46 67 1.019 1.022 1.023 SSO 2,6 20,9 0,0
Últims 13 mesos disponibles
02/2020 4,9 10,1 15,9 15,3 16,6 22,1 27,4 22,5 40 70 86 1.017 1.027 1.035 SSO 2,1 56,3 2,4
01/2020 2,6 7,1 14,3 11,6 10,3 17,2 22,9 20,3 60 75 89 1.015 1.027 1.034 SSE 1,7 40,2 63,6
12/2019 5,4 10,5 17,9 14,5 13,0 18,9 25,2 19,8 45 69 87 1.008 1.021 1.034 SO 2,6 53,1 43,4
11/2019 6,8 12,1 20,0 16,1 15,2 20,4 28,4 21,6 40 58 91 1.002 1.013 1.021 SSO 3,7 51,5 10,8
10/2019 11,2 16,2 22,1 21,3 17,4 26,6 34,9 23,7 45 68 90 1.010 1.018 1.024 SSO 2,0 33,8 19,2
09/2019 16,3 20,7 24,2 24,5 22,9 29,4 35,4 19,1 48 74 88 1.012 1.019 1.024 SSE 2,9 51,5 307,6
08/2019 19,8 22,7 25,8 27,3 29,5 33,0 42,7 22,9 36 67 80 1.012 1.017 1.021 ESE 2,4 45,1 32,8
07/2019 21,0 23,1 26,5 28,3 29,6 33,7 38,9 17,9 36 60 73 1.008 1.015 1.021 ESE 4,1 41,8 0,2
06/2019 13,9 18,6 23,2 24,4 24,7 30,2 36,3 22,4 37 59 73 1.010 1.016 1.024 SSE 3,8 49,9 0,8
05/2019 11,6 15,4 21,2 20,6 21,6 26,3 32,7 21,1 46 64 75 1.008 1.017 1.026 SE 3,6 48,3 3,4
04/2019 8,3 12,1 15,8 16,3 14,6 21,7 29,9 21,6 46 67 90 1.002 1.015 1.027 S 2,7 57,9 80,4
03/2019 5,4 9,2 13,2 14,9 13,1 21,4 28,7 23,3 40 62 90 1.013 1.024 1.032 SSE 2,2 46,7 18,6
02/2019 4,9 7,8 11,9 13,1 14,2 19,9 28,3 23,4 37 63 78 999 1.027 1.034 SSE 2,3 51,5 0,0
Tots els anys disponibles
2019 1,3 14,5 26,5 19,3 13,0 24,8 42,7 41,4 36 64 91 999 1.019 1.034 SSE 2,8 57,9 519,8
Temperatura (°C)
Humitat relativa (%)
Velocitat del vent i ràfega màxima (km/h)
Direcció del vent (°)
Pressió (hPa)
Precipitació (mm)
Nota sobre les dades: s'avisa a l'usuari de la provisionalitat i no oficialitat d'aquestes dades
Logo AVAMET blanc
Web allotjada a Sollutia
Llicència de Creative CommonsLa web d'AVAMET i els seus continguts estan subjectes a una llicència de
Reconeixement - No Comercial - Compartir igual
Últimes estacions:  Altea - Com. Regants (Soci), Almoines (Inforatge), Beniparrell (Inforatge), Albal (Inforatge), Almussafes - Parc Industrial (Inforatge), La Vilavella (Soci), la Serratella (soci) - - -